createdAt,value
2023-03-06T00:18:04.063Z,40
2023-03-06T00:47:00.233Z,38
2023-03-06T01:16:12.210Z,37
2023-03-06T01:44:35.007Z,36
2023-03-06T02:13:31.744Z,37
2023-03-06T02:42:32.264Z,37
2023-03-06T03:11:27.912Z,35
2023-03-06T03:40:34.309Z,37
2023-03-06T04:09:36.600Z,37
2023-03-06T04:38:39.357Z,34
2023-03-06T05:06:56.401Z,37
2023-03-06T05:36:05.727Z,38
2023-03-06T06:04:24.674Z,40
2023-03-06T06:32:37.927Z,38
2023-03-06T07:01:29.333Z,38
2023-03-06T07:30:26.856Z,37
2023-03-06T07:59:24.891Z,41
2023-03-06T08:28:30.923Z,43
2023-03-06T08:57:38.124Z,41
2023-03-06T09:26:45.821Z,37
2023-03-06T09:54:58.450Z,34
2023-03-06T10:23:57.947Z,34
2023-03-06T10:52:02.192Z,30
2023-03-06T11:20:29.207Z,31
2023-03-06T11:48:51.106Z,29
2023-03-06T12:16:54.231Z,28
2023-03-06T12:45:10.687Z,27
2023-03-06T13:13:22.934Z,24
2023-03-06T13:41:43.534Z,23
2023-03-06T14:10:00.331Z,22
2023-03-06T14:38:27.802Z,23
2023-03-06T15:06:47.723Z,25
2023-03-06T15:34:55.194Z,24
2023-03-06T16:03:23.045Z,30
2023-03-06T16:31:44.668Z,27
2023-03-06T17:00:07.442Z,31
2023-03-06T17:28:16.326Z,34
2023-03-06T17:56:36.540Z,31
2023-03-06T18:24:53.545Z,35
2023-03-06T18:53:13.310Z,35
2023-03-06T19:21:31.533Z,36
2023-03-06T19:50:19.713Z,34
2023-03-06T20:19:10.927Z,30
2023-03-06T20:48:21.029Z,35
2023-03-06T21:17:13.863Z,30
2023-03-06T21:45:55.189Z,30
2023-03-06T22:14:43.616Z,28
2023-03-06T22:43:40.004Z,30
2023-03-06T23:12:36.238Z,31
2023-03-06T23:40:43.454Z,30
